sensor_id;sensor_type;location;lat;lon;timestamp;pressure;altitude;pressure_sealevel;temperature;humidity
37064;BME280;23211;53.912;9.138;2022-09-09T00:02:30;100770.41;;;21.16;54.34
37064;BME280;23211;53.912;9.138;2022-09-09T00:05:41;100773.00;;;21.13;54.77
37064;BME280;23211;53.912;9.138;2022-09-09T00:11:43;100763.38;;;21.15;54.31
37064;BME280;23211;53.912;9.138;2022-09-09T00:21:43;100757.78;;;21.03;54.62
37064;BME280;23211;53.912;9.138;2022-09-09T00:30:25;100753.13;;;21.04;54.68
37064;BME280;23211;53.912;9.138;2022-09-09T00:33:13;100751.22;;;21.04;54.70
37064;BME280;23211;53.912;9.138;2022-09-09T00:36:01;100752.81;;;21.05;54.71
37064;BME280;23211;53.912;9.138;2022-09-09T00:38:52;100749.28;;;21.05;54.75
37064;BME280;23211;53.912;9.138;2022-09-09T00:44:56;100751.06;;;21.01;54.75
37064;BME280;23211;53.912;9.138;2022-09-09T00:47:51;100742.88;;;21.01;54.63
37064;BME280;23211;53.912;9.138;2022-09-09T00:50:53;100752.19;;;21.00;54.54
37064;BME280;23211;53.912;9.138;2022-09-09T00:56:35;100751.38;;;20.99;54.50
37064;BME280;23211;53.912;9.138;2022-09-09T00:59:48;100753.78;;;20.92;54.71
37064;BME280;23211;53.912;9.138;2022-09-09T01:02:45;100752.53;;;20.89;54.77
37064;BME280;23211;53.912;9.138;2022-09-09T01:05:41;100753.16;;;20.86;54.91
37064;BME280;23211;53.912;9.138;2022-09-09T01:08:42;100759.25;;;20.83;54.71
37064;BME280;23211;53.912;9.138;2022-09-09T01:12:01;100756.34;;;20.80;54.92
37064;BME280;23211;53.912;9.138;2022-09-09T01:14:54;100756.84;;;20.82;55.00
37064;BME280;23211;53.912;9.138;2022-09-09T01:17:53;100759.06;;;20.80;55.04
37064;BME280;23211;53.912;9.138;2022-09-09T01:20:49;100749.81;;;20.81;54.87
37064;BME280;23211;53.912;9.138;2022-09-09T01:23:55;100753.31;;;20.81;54.79
37064;BME280;23211;53.912;9.138;2022-09-09T01:27:01;100749.00;;;20.80;54.72
37064;BME280;23211;53.912;9.138;2022-09-09T01:29:47;100755.88;;;20.78;54.71
37064;BME280;23211;53.912;9.138;2022-09-09T01:32:46;100752.97;;;20.74;54.67
37064;BME280;23211;53.912;9.138;2022-09-09T01:35:48;100752.66;;;20.76;54.66
37064;BME280;23211;53.912;9.138;2022-09-09T01:38:37;100751.88;;;20.75;54.77
37064;BME280;23211;53.912;9.138;2022-09-09T01:41:23;100747.06;;;20.72;54.77
37064;BME280;23211;53.912;9.138;2022-09-09T01:44:25;100747.69;;;20.69;54.69
37064;BME280;23211;53.912;9.138;2022-09-09T01:47:11;100751.53;;;20.68;54.76
37064;BME280;23211;53.912;9.138;2022-09-09T01:50:15;100745.94;;;20.65;54.75
37064;BME280;23211;53.912;9.138;2022-09-09T01:53:02;100751.06;;;20.66;54.71
37064;BME280;23211;53.912;9.138;2022-09-09T01:56:07;100748.50;;;20.61;54.86
37064;BME280;23211;53.912;9.138;2022-09-09T02:02:17;100748.19;;;20.63;54.79
37064;BME280;23211;53.912;9.138;2022-09-09T02:08:11;100741.63;;;20.64;54.75
37064;BME280;23211;53.912;9.138;2022-09-09T02:11:25;100736.97;;;20.64;54.82
37064;BME280;23211;53.912;9.138;2022-09-09T02:14:24;100749.78;;;20.64;54.74
37064;BME280;23211;53.912;9.138;2022-09-09T02:17:14;100741.31;;;20.65;54.78
37064;BME280;23211;53.912;9.138;2022-09-09T02:20:19;100739.38;;;20.66;54.63
37064;BME280;23211;53.912;9.138;2022-09-09T02:23:12;100730.09;;;20.67;54.51
37064;BME280;23211;53.912;9.138;2022-09-09T02:26:01;100732.00;;;20.66;54.56
37064;BME280;23211;53.912;9.138;2022-09-09T02:28:49;100733.13;;;20.65;54.57
37064;BME280;23211;53.912;9.138;2022-09-09T02:31:37;100728.50;;;20.66;54.60
37064;BME280;23211;53.912;9.138;2022-09-09T02:34:30;100731.53;;;20.64;54.64
37064;BME280;23211;53.912;9.138;2022-09-09T02:37:20;100730.25;;;20.62;54.80
37064;BME280;23211;53.912;9.138;2022-09-09T02:40:13;100727.84;;;20.60;54.63
37064;BME280;23211;53.912;9.138;2022-09-09T02:43:04;100724.66;;;20.58;54.67
37064;BME280;23211;53.912;9.138;2022-09-09T02:46:20;100728.34;;;20.53;54.87
37064;BME280;23211;53.912;9.138;2022-09-09T02:52:20;100732.81;;;20.49;54.89
37064;BME280;23211;53.912;9.138;2022-09-09T02:55:20;100733.63;;;20.41;55.05
37064;BME280;23211;53.912;9.138;2022-09-09T02:58:14;100730.41;;;20.39;55.18
37064;BME280;23211;53.912;9.138;2022-09-09T03:01:04;100727.19;;;20.37;55.21
37064;BME280;23211;53.912;9.138;2022-09-09T03:03:50;100728.28;;;20.36;55.08
37064;BME280;23211;53.912;9.138;2022-09-09T03:06:37;100727.00;;;20.34;55.25
37064;BME280;23211;53.912;9.138;2022-09-09T03:09:34;100734.69;;;20.32;55.30
37064;BME280;23211;53.912;9.138;2022-09-09T03:12:19;100735.00;;;20.30;55.07
37064;BME280;23211;53.912;9.138;2022-09-09T03:15:07;100735.66;;;20.27;55.07
37064;BME280;23211;53.912;9.138;2022-09-09T03:17:53;100728.94;;;20.24;55.33
37064;BME280;23211;53.912;9.138;2022-09-09T03:20:41;100733.09;;;20.22;55.43
37064;BME280;23211;53.912;9.138;2022-09-09T03:23:27;100741.09;;;20.18;55.39
37064;BME280;23211;53.912;9.138;2022-09-09T03:26:14;100753.41;;;20.16;55.48
37064;BME280;23211;53.912;9.138;2022-09-09T03:29:04;100760.44;;;20.17;55.69
37064;BME280;23211;53.912;9.138;2022-09-09T03:31:52;100763.16;;;20.17;55.77
37064;BME280;23211;53.912;9.138;2022-09-09T03:34:38;100755.81;;;20.17;55.72
37064;BME280;23211;53.912;9.138;2022-09-09T03:37:29;100755.63;;;20.14;55.74
37064;BME280;23211;53.912;9.138;2022-09-09T03:40:15;100758.34;;;20.14;55.75
37064;BME280;23211;53.912;9.138;2022-09-09T03:43:03;100763.81;;;20.14;55.83
37064;BME280;23211;53.912;9.138;2022-09-09T03:45:50;100751.78;;;20.15;55.89
37064;BME280;23211;53.912;9.138;2022-09-09T03:48:36;100759.66;;;20.16;55.82
37064;BME280;23211;53.912;9.138;2022-09-09T03:51:23;100756.59;;;20.18;55.72
37064;BME280;23211;53.912;9.138;2022-09-09T03:54:09;100751.97;;;20.18;55.62
37064;BME280;23211;53.912;9.138;2022-09-09T03:56:56;100760.44;;;20.17;55.59
37064;BME280;23211;53.912;9.138;2022-09-09T03:59:43;100754.19;;;20.16;55.65
37064;BME280;23211;53.912;9.138;2022-09-09T04:02:29;100758.03;;;20.15;55.97
37064;BME280;23211;53.912;9.138;2022-09-09T04:05:15;100749.06;;;20.15;55.72
37064;BME280;23211;53.912;9.138;2022-09-09T04:08:02;100747.16;;;20.15;55.69
37064;BME280;23211;53.912;9.138;2022-09-09T04:10:49;100746.03;;;20.16;55.61
37064;BME280;23211;53.912;9.138;2022-09-09T04:13:37;100752.28;;;20.17;55.67
37064;BME280;23211;53.912;9.138;2022-09-09T04:16:24;100741.41;;;20.17;55.86
37064;BME280;23211;53.912;9.138;2022-09-09T04:19:12;100733.25;;;20.17;55.77
37064;BME280;23211;53.912;9.138;2022-09-09T04:22:00;100745.25;;;20.16;55.73
37064;BME280;23211;53.912;9.138;2022-09-09T04:24:46;100743.63;;;20.15;55.69
37064;BME280;23211;53.912;9.138;2022-09-09T04:27:32;100743.63;;;20.15;55.85
37064;BME280;23211;53.912;9.138;2022-09-09T04:30:18;100750.19;;;20.14;55.75
37064;BME280;23211;53.912;9.138;2022-09-09T04:33:03;100757.25;;;20.15;55.96
37064;BME280;23211;53.912;9.138;2022-09-09T04:35:50;100764.28;;;20.16;55.74
37064;BME280;23211;53.912;9.138;2022-09-09T04:38:37;100770.84;;;20.15;55.89
37064;BME280;23211;53.912;9.138;2022-09-09T04:41:23;100772.44;;;20.16;55.88
37064;BME280;23211;53.912;9.138;2022-09-09T04:44:12;100772.44;;;20.16;56.03
37064;BME280;23211;53.912;9.138;2022-09-09T04:46:58;100780.28;;;20.17;55.85
37064;BME280;23211;53.912;9.138;2022-09-09T04:49:43;100774.03;;;20.17;55.86
37064;BME280;23211;53.912;9.138;2022-09-09T04:52:30;100779.16;;;20.18;55.88
37064;BME280;23211;53.912;9.138;2022-09-09T04:55:15;100767.16;;;20.19;55.74
37064;BME280;23211;53.912;9.138;2022-09-09T04:58:04;100773.41;;;20.20;55.74
37064;BME280;23211;53.912;9.138;2022-09-09T05:00:51;100771.31;;;20.17;55.65
37064;BME280;23211;53.912;9.138;2022-09-09T05:03:37;100781.72;;;20.15;55.61
37064;BME280;23211;53.912;9.138;2022-09-09T05:06:25;100774.19;;;20.12;55.69
37064;BME280;23211;53.912;9.138;2022-09-09T05:09:17;100768.28;;;20.10;55.69
37064;BME280;23211;53.912;9.138;2022-09-09T05:12:04;100780.75;;;20.11;55.80
37064;BME280;23211;53.912;9.138;2022-09-09T05:14:55;100783.00;;;20.09;55.81
37064;BME280;23211;53.912;9.138;2022-09-09T05:17:41;100785.88;;;20.12;55.88
37064;BME280;23211;53.912;9.138;2022-09-09T05:20:28;100787.16;;;20.15;55.76
37064;BME280;23211;53.912;9.138;2022-09-09T05:23:14;100787.47;;;20.13;55.70
37064;BME280;23211;53.912;9.138;2022-09-09T05:26:00;100784.75;;;20.13;55.42
37064;BME280;23211;53.912;9.138;2022-09-09T05:28:48;100781.25;;;20.13;55.41
37064;BME280;23211;53.912;9.138;2022-09-09T05:31:34;100783.16;;;20.12;55.42
37064;BME280;23211;53.912;9.138;2022-09-09T05:34:23;100792.13;;;20.13;55.40
37064;BME280;23211;53.912;9.138;2022-09-09T05:37:09;100799.47;;;20.12;55.23
37064;BME280;23211;53.912;9.138;2022-09-09T05:39:56;100805.72;;;20.13;55.61
37064;BME280;23211;53.912;9.138;2022-09-09T05:42:43;100806.84;;;20.12;55.26
37064;BME280;23211;53.912;9.138;2022-09-09T05:45:29;100815.78;;;20.12;55.50
37064;BME280;23211;53.912;9.138;2022-09-09T05:48:15;100806.53;;;20.13;55.55
37064;BME280;23211;53.912;9.138;2022-09-09T05:51:02;100808.94;;;20.15;55.82
37064;BME280;23211;53.912;9.138;2022-09-09T05:53:49;100810.22;;;20.17;55.74
37064;BME280;23211;53.912;9.138;2022-09-09T05:56:36;100812.31;;;20.20;55.88
37064;BME280;23211;53.912;9.138;2022-09-09T05:59:22;100813.91;;;20.21;55.72
37064;BME280;23211;53.912;9.138;2022-09-09T06:02:11;100813.59;;;20.23;55.80
37064;BME280;23211;53.912;9.138;2022-09-09T06:04:58;100812.16;;;20.25;55.57
37064;BME280;23211;53.912;9.138;2022-09-09T06:07:44;100806.06;;;20.28;55.90
37064;BME280;23211;53.912;9.138;2022-09-09T06:10:30;100816.31;;;20.32;55.95
37064;BME280;23211;53.912;9.138;2022-09-09T06:13:16;100807.22;;;20.36;56.23
37064;BME280;23211;53.912;9.138;2022-09-09T06:16:03;100808.69;;;20.42;56.20
37064;BME280;23211;53.912;9.138;2022-09-09T06:18:50;100816.38;;;20.49;56.43
37064;BME280;23211;53.912;9.138;2022-09-09T06:21:36;100819.44;;;20.56;56.54
37064;BME280;23211;53.912;9.138;2022-09-09T06:24:24;100817.38;;;20.62;56.53
37064;BME280;23211;53.912;9.138;2022-09-09T06:27:10;100821.22;;;20.69;56.42
37064;BME280;23211;53.912;9.138;2022-09-09T06:29:56;100816.41;;;20.75;56.07
37064;BME280;23211;53.912;9.138;2022-09-09T06:32:42;100816.44;;;20.83;56.32
37064;BME280;23211;53.912;9.138;2022-09-09T06:35:29;100814.69;;;20.87;56.21
37064;BME280;23211;53.912;9.138;2022-09-09T06:38:14;100811.16;;;20.96;56.30
37064;BME280;23211;53.912;9.138;2022-09-09T06:41:00;100819.97;;;21.01;56.52
37064;BME280;23211;53.912;9.138;2022-09-09T06:43:49;100814.81;;;21.08;56.25
37064;BME280;23211;53.912;9.138;2022-09-09T06:46:35;100816.59;;;21.13;56.22
37064;BME280;23211;53.912;9.138;2022-09-09T06:49:22;100818.34;;;21.17;56.25
37064;BME280;23211;53.912;9.138;2022-09-09T06:52:07;100822.84;;;21.22;56.13
37064;BME280;23211;53.912;9.138;2022-09-09T06:54:54;100814.84;;;21.26;55.92
37064;BME280;23211;53.912;9.138;2022-09-09T06:57:41;100818.84;;;21.28;55.87
37064;BME280;23211;53.912;9.138;2022-09-09T07:00:35;100828.75;;;21.33;55.78
37064;BME280;23211;53.912;9.138;2022-09-09T07:03:23;100819.94;;;21.36;55.51
37064;BME280;23211;53.912;9.138;2022-09-09T07:06:14;100834.03;;;21.38;55.61
37064;BME280;23211;53.912;9.138;2022-09-09T07:09:06;100832.59;;;21.40;55.57
37064;BME280;23211;53.912;9.138;2022-09-09T07:11:53;100836.59;;;21.43;55.41
37064;BME280;23211;53.912;9.138;2022-09-09T07:14:40;100844.13;;;21.46;55.52
37064;BME280;23211;53.912;9.138;2022-09-09T07:17:27;100840.28;;;21.47;55.50
37064;BME280;23211;53.912;9.138;2022-09-09T07:20:15;100845.09;;;21.50;55.71
37064;BME280;23211;53.912;9.138;2022-09-09T07:23:00;100857.75;;;21.54;55.74
37064;BME280;23211;53.912;9.138;2022-09-09T07:25:46;100855.16;;;21.58;55.94
37064;BME280;23211;53.912;9.138;2022-09-09T07:28:35;100847.63;;;21.64;56.01
37064;BME280;23211;53.912;9.138;2022-09-09T07:31:24;100856.75;;;21.68;56.03
37064;BME280;23211;53.912;9.138;2022-09-09T07:34:12;100846.47;;;21.73;56.13
37064;BME280;23211;53.912;9.138;2022-09-09T07:36:59;100849.50;;;21.80;55.92
37064;BME280;23211;53.912;9.138;2022-09-09T07:39:45;100854.44;;;21.87;55.95
37064;BME280;23211;53.912;9.138;2022-09-09T07:42:31;100854.72;;;21.94;55.81
37064;BME280;23211;53.912;9.138;2022-09-09T07:45:17;100851.03;;;21.99;55.71
37064;BME280;23211;53.912;9.138;2022-09-09T07:48:04;100864.19;;;22.05;55.79
37064;BME280;23211;53.912;9.138;2022-09-09T07:50:51;100862.06;;;22.11;55.57
37064;BME280;23211;53.912;9.138;2022-09-09T07:53:40;100857.22;;;22.16;55.42
37064;BME280;23211;53.912;9.138;2022-09-09T07:56:26;100867.97;;;22.22;55.27
37064;BME280;23211;53.912;9.138;2022-09-09T07:59:13;100862.66;;;22.25;55.47
37064;BME280;23211;53.912;9.138;2022-09-09T08:02:00;100859.72;;;22.30;55.47
37064;BME280;23211;53.912;9.138;2022-09-09T08:04:49;100858.41;;;22.36;55.27
37064;BME280;23211;53.912;9.138;2022-09-09T08:07:37;100854.34;;;22.42;55.34
37064;BME280;23211;53.912;9.138;2022-09-09T08:10:23;100853.03;;;22.48;55.37
37064;BME280;23211;53.912;9.138;2022-09-09T08:13:10;100854.78;;;22.53;54.99
37064;BME280;23211;53.912;9.138;2022-09-09T08:16:04;100852.19;;;22.57;54.77
37064;BME280;23211;53.912;9.138;2022-09-09T08:18:52;100856.31;;;22.63;54.79
37064;BME280;23211;53.912;9.138;2022-09-09T08:21:39;100856.91;;;22.68;54.64
37064;BME280;23211;53.912;9.138;2022-09-09T08:24:26;100860.44;;;22.69;54.55
37064;BME280;23211;53.912;9.138;2022-09-09T08:27:12;100869.13;;;22.71;54.39
37064;BME280;23211;53.912;9.138;2022-09-09T08:29:58;100870.06;;;22.75;54.57
37064;BME280;23211;53.912;9.138;2022-09-09T08:32:44;100877.28;;;22.79;54.45
37064;BME280;23211;53.912;9.138;2022-09-09T08:35:32;100878.22;;;22.83;54.27
37064;BME280;23211;53.912;9.138;2022-09-09T08:38:18;100881.22;;;22.91;54.41
37064;BME280;23211;53.912;9.138;2022-09-09T08:41:25;100884.28;;;22.89;54.25
37064;BME280;23211;53.912;9.138;2022-09-09T08:47:58;100888.88;;;22.97;54.30
37064;BME280;23211;53.912;9.138;2022-09-09T08:50:50;100890.41;;;23.07;54.38
37064;BME280;23211;53.912;9.138;2022-09-09T08:53:44;100888.41;;;23.16;54.35
37064;BME280;23211;53.912;9.138;2022-09-09T08:56:33;100893.78;;;23.25;54.31
37064;BME280;23211;53.912;9.138;2022-09-09T08:59:20;100894.84;;;23.32;53.88
37064;BME280;23211;53.912;9.138;2022-09-09T09:02:18;100883.25;;;23.35;53.43
37064;BME280;23211;53.912;9.138;2022-09-09T09:05:15;100894.78;;;23.41;53.18
37064;BME280;23211;53.912;9.138;2022-09-09T09:08:16;100890.78;;;23.38;53.50
37064;BME280;23211;53.912;9.138;2022-09-09T09:11:05;100890.22;;;23.45;53.41
37064;BME280;23211;53.912;9.138;2022-09-09T09:13:57;100892.28;;;23.48;53.30
37064;BME280;23211;53.912;9.138;2022-09-09T09:19:41;100896.56;;;23.58;53.23
37064;BME280;23211;53.912;9.138;2022-09-09T09:22:47;100891.22;;;23.61;53.60
37064;BME280;23211;53.912;9.138;2022-09-09T09:25:38;100900.59;;;23.72;53.30
37064;BME280;23211;53.912;9.138;2022-09-09T09:28:31;100892.63;;;23.79;53.36
37064;BME280;23211;53.912;9.138;2022-09-09T09:31:24;100899.72;;;23.93;53.55
37064;BME280;23211;53.912;9.138;2022-09-09T09:34:12;100899.28;;;24.03;52.84
37064;BME280;23211;53.912;9.138;2022-09-09T09:37:00;100897.69;;;24.14;53.00
37064;BME280;23211;53.912;9.138;2022-09-09T09:39:49;100900.31;;;24.23;52.91
37064;BME280;23211;53.912;9.138;2022-09-09T09:42:35;100900.69;;;24.33;52.89
37064;BME280;23211;53.912;9.138;2022-09-09T09:45:40;100898.19;;;24.40;52.91
37064;BME280;23211;53.912;9.138;2022-09-09T09:48:27;100900.91;;;24.53;52.64
37064;BME280;23211;53.912;9.138;2022-09-09T09:51:15;100903.09;;;24.59;52.07
37064;BME280;23211;53.912;9.138;2022-09-09T09:57:22;100901.38;;;24.67;51.86
37064;BME280;23211;53.912;9.138;2022-09-09T10:03:30;100907.50;;;24.76;52.09
37064;BME280;23211;53.912;9.138;2022-09-09T10:06:37;100902.94;;;24.80;51.74
37064;BME280;23211;53.912;9.138;2022-09-09T10:09:27;100903.59;;;24.89;51.67
37064;BME280;23211;53.912;9.138;2022-09-09T10:12:24;100899.47;;;24.95;51.26
37064;BME280;23211;53.912;9.138;2022-09-09T10:15:36;100900.63;;;24.94;50.73
37064;BME280;23211;53.912;9.138;2022-09-09T10:28:27;100901.97;;;25.13;50.10
37064;BME280;23211;53.912;9.138;2022-09-09T10:37:43;100900.72;;;25.38;49.42
37064;BME280;23211;53.912;9.138;2022-09-09T10:40:33;100902.63;;;25.50;49.65
37064;BME280;23211;53.912;9.138;2022-09-09T10:49:50;100901.91;;;25.81;49.09
37064;BME280;23211;53.912;9.138;2022-09-09T10:52:57;100895.63;;;25.96;48.53
37064;BME280;23211;53.912;9.138;2022-09-09T10:56:14;100891.03;;;26.00;48.37
37064;BME280;23211;53.912;9.138;2022-09-09T10:59:17;100892.56;;;26.13;48.02
37064;BME280;23211;53.912;9.138;2022-09-09T11:02:21;100895.56;;;26.24;47.90
37064;BME280;23211;53.912;9.138;2022-09-09T11:05:22;100891.94;;;26.36;47.61
37064;BME280;23211;53.912;9.138;2022-09-09T11:08:19;100904.34;;;26.45;46.88
37064;BME280;23211;53.912;9.138;2022-09-09T11:17:18;100900.22;;;26.71;46.78
37064;BME280;23211;53.912;9.138;2022-09-09T11:20:11;100894.59;;;26.83;46.32
37064;BME280;23211;53.912;9.138;2022-09-09T11:23:05;100897.56;;;26.93;46.25
37064;BME280;23211;53.912;9.138;2022-09-09T11:25:57;100893.63;;;27.10;46.16
37064;BME280;23211;53.912;9.138;2022-09-09T11:29:31;100890.28;;;27.20;46.00
37064;BME280;23211;53.912;9.138;2022-09-09T11:38:33;100901.06;;;27.48;45.01
37064;BME280;23211;53.912;9.138;2022-09-09T11:41:33;100896.34;;;27.49;44.69
37064;BME280;23211;53.912;9.138;2022-09-09T11:44:30;100895.63;;;27.52;44.22
37064;BME280;23211;53.912;9.138;2022-09-09T11:47:29;100903.06;;;27.51;44.35
37064;BME280;23211;53.912;9.138;2022-09-09T11:56:01;100903.44;;;27.50;43.88
37064;BME280;23211;53.912;9.138;2022-09-09T11:59:01;100900.25;;;27.48;43.65
37064;BME280;23211;53.912;9.138;2022-09-09T12:01:58;100895.56;;;27.48;43.84
37064;BME280;23211;53.912;9.138;2022-09-09T12:05:08;100901.78;;;27.45;43.73
37064;BME280;23211;53.912;9.138;2022-09-09T12:07:58;100899.09;;;27.49;43.49
37064;BME280;23211;53.912;9.138;2022-09-09T12:10:56;100895.91;;;27.47;43.28
37064;BME280;23211;53.912;9.138;2022-09-09T12:13:52;100901.06;;;27.48;43.09
37064;BME280;23211;53.912;9.138;2022-09-09T12:16:38;100895.25;;;27.53;43.36
37064;BME280;23211;53.912;9.138;2022-09-09T12:19:25;100899.59;;;27.54;43.37
37064;BME280;23211;53.912;9.138;2022-09-09T12:22:30;100892.44;;;27.50;43.32
37064;BME280;23211;53.912;9.138;2022-09-09T12:28:15;100887.72;;;27.50;42.84
37064;BME280;23211;53.912;9.138;2022-09-09T12:31:14;100886.94;;;27.50;42.78
37064;BME280;23211;53.912;9.138;2022-09-09T12:34:12;100886.13;;;27.49;42.97
37064;BME280;23211;53.912;9.138;2022-09-09T12:37:06;100881.00;;;27.48;42.63
37064;BME280;23211;53.912;9.138;2022-09-09T12:39:58;100882.94;;;27.47;42.40
37064;BME280;23211;53.912;9.138;2022-09-09T12:42:45;100884.47;;;27.45;42.88
37064;BME280;23211;53.912;9.138;2022-09-09T12:45:32;100877.38;;;27.44;42.77
37064;BME280;23211;53.912;9.138;2022-09-09T12:48:19;100879.34;;;27.43;42.36
37064;BME280;23211;53.912;9.138;2022-09-09T12:51:18;100882.03;;;27.40;42.27
37064;BME280;23211;53.912;9.138;2022-09-09T12:54:04;100869.91;;;27.44;42.61
37064;BME280;23211;53.912;9.138;2022-09-09T12:56:50;100875.84;;;27.46;42.22
37064;BME280;23211;53.912;9.138;2022-09-09T12:59:39;100877.09;;;27.49;42.02
37064;BME280;23211;53.912;9.138;2022-09-09T13:02:26;100871.28;;;27.54;42.25
37064;BME280;23211;53.912;9.138;2022-09-09T13:05:17;100864.25;;;27.56;42.20
37064;BME280;23211;53.912;9.138;2022-09-09T13:08:05;100866.25;;;27.59;42.51
37064;BME280;23211;53.912;9.138;2022-09-09T13:10:54;100851.38;;;27.60;41.92
37064;BME280;23211;53.912;9.138;2022-09-09T13:13:42;100867.16;;;27.44;43.25
37064;BME280;23211;53.912;9.138;2022-09-09T13:16:30;100872.22;;;27.62;42.13
37064;BME280;23211;53.912;9.138;2022-09-09T13:19:17;100875.41;;;27.64;42.04
37064;BME280;23211;53.912;9.138;2022-09-09T13:22:31;100876.84;;;27.57;42.28
37064;BME280;23211;53.912;9.138;2022-09-09T13:25:25;100874.53;;;27.59;42.11
37064;BME280;23211;53.912;9.138;2022-09-09T13:28:20;100882.34;;;27.57;42.22
37064;BME280;23211;53.912;9.138;2022-09-09T13:31:24;100878.38;;;27.55;42.46
37064;BME280;23211;53.912;9.138;2022-09-09T13:37:27;100884.47;;;27.45;42.09
37064;BME280;23211;53.912;9.138;2022-09-09T13:40:21;100884.41;;;27.41;42.17
37064;BME280;23211;53.912;9.138;2022-09-09T13:43:13;100891.88;;;27.21;43.11
37064;BME280;23211;53.912;9.138;2022-09-09T13:46:25;100886.44;;;27.25;42.63
37064;BME280;23211;53.912;9.138;2022-09-09T13:52:24;100870.69;;;27.03;42.95
37064;BME280;23211;53.912;9.138;2022-09-09T13:55:12;100877.69;;;27.00;43.33
37064;BME280;23211;53.912;9.138;2022-09-09T13:58:00;100879.31;;;26.85;42.96
37064;BME280;23211;53.912;9.138;2022-09-09T14:00:46;100871.13;;;26.70;43.84
37064;BME280;23211;53.912;9.138;2022-09-09T14:03:32;100872.41;;;26.56;44.11
37064;BME280;23211;53.912;9.138;2022-09-09T14:06:19;100879.69;;;26.49;44.64
37064;BME280;23211;53.912;9.138;2022-09-09T14:09:10;100893.72;;;26.44;44.90
37064;BME280;23211;53.912;9.138;2022-09-09T14:11:56;100902.66;;;26.41;45.01
37064;BME280;23211;53.912;9.138;2022-09-09T14:14:42;100902.22;;;26.39;45.31
37064;BME280;23211;53.912;9.138;2022-09-09T14:17:28;100911.97;;;26.36;45.19
37064;BME280;23211;53.912;9.138;2022-09-09T14:20:15;100912.69;;;26.33;45.35
37064;BME280;23211;53.912;9.138;2022-09-09T14:23:03;100924.34;;;26.30;45.70
37064;BME280;23211;53.912;9.138;2022-09-09T14:25:48;100925.41;;;26.25;45.48
37064;BME280;23211;53.912;9.138;2022-09-09T14:28:35;100923.66;;;26.17;45.25
37064;BME280;23211;53.912;9.138;2022-09-09T14:31:23;100935.16;;;26.07;45.31
37064;BME280;23211;53.912;9.138;2022-09-09T14:34:09;100937.97;;;25.95;45.40
37064;BME280;23211;53.912;9.138;2022-09-09T14:36:56;100936.19;;;25.87;45.34
37064;BME280;23211;53.912;9.138;2022-09-09T14:39:42;100944.56;;;25.78;45.41
37064;BME280;23211;53.912;9.138;2022-09-09T14:42:29;100941.19;;;25.69;45.31
37064;BME280;23211;53.912;9.138;2022-09-09T14:45:15;100946.81;;;25.60;45.47
37064;BME280;23211;53.912;9.138;2022-09-09T14:48:01;100943.88;;;25.53;45.57
37064;BME280;23211;53.912;9.138;2022-09-09T14:50:48;100941.72;;;25.47;45.88
37064;BME280;23211;53.912;9.138;2022-09-09T14:53:34;100945.50;;;25.42;45.66
37064;BME280;23211;53.912;9.138;2022-09-09T14:56:23;100939.47;;;25.36;45.76
37064;BME280;23211;53.912;9.138;2022-09-09T14:59:09;100944.41;;;25.31;46.00
37064;BME280;23211;53.912;9.138;2022-09-09T15:01:55;100944.22;;;25.24;45.89
37064;BME280;23211;53.912;9.138;2022-09-09T15:04:41;100949.94;;;25.19;45.94
37064;BME280;23211;53.912;9.138;2022-09-09T15:07:27;100951.31;;;25.13;46.41
37064;BME280;23211;53.912;9.138;2022-09-09T15:10:14;100951.22;;;25.09;46.53
37064;BME280;23211;53.912;9.138;2022-09-09T15:13:00;100946.44;;;25.06;46.57
37064;BME280;23211;53.912;9.138;2022-09-09T15:15:46;100946.31;;;25.02;46.36
37064;BME280;23211;53.912;9.138;2022-09-09T15:18:32;100934.44;;;24.98;46.59
37064;BME280;23211;53.912;9.138;2022-09-09T15:21:20;100935.91;;;24.96;46.71
37064;BME280;23211;53.912;9.138;2022-09-09T15:24:06;100941.75;;;24.94;46.68
37064;BME280;23211;53.912;9.138;2022-09-09T15:26:53;100932.25;;;24.92;47.04
37064;BME280;23211;53.912;9.138;2022-09-09T15:29:39;100930.31;;;24.92;47.11
37064;BME280;23211;53.912;9.138;2022-09-09T15:32:25;100925.28;;;24.94;47.53
37064;BME280;23211;53.912;9.138;2022-09-09T15:35:11;100915.94;;;24.95;47.70
37064;BME280;23211;53.912;9.138;2022-09-09T15:37:56;100912.88;;;24.97;47.65
37064;BME280;23211;53.912;9.138;2022-09-09T15:40:43;100908.97;;;24.98;47.76
37064;BME280;23211;53.912;9.138;2022-09-09T15:43:29;100909.44;;;25.00;47.98
37064;BME280;23211;53.912;9.138;2022-09-09T15:49:16;100892.41;;;25.06;48.10
37064;BME280;23211;53.912;9.138;2022-09-09T15:52:05;100890.09;;;25.09;47.58
37064;BME280;23211;53.912;9.138;2022-09-09T15:54:51;100881.97;;;25.12;47.54
37064;BME280;23211;53.912;9.138;2022-09-09T15:57:37;100876.94;;;25.14;47.43
37064;BME280;23211;53.912;9.138;2022-09-09T16:00:23;100874.66;;;25.16;47.60
37064;BME280;23211;53.912;9.138;2022-09-09T16:03:09;100865.97;;;25.14;47.52
37064;BME280;23211;53.912;9.138;2022-09-09T16:05:57;100869.31;;;25.08;47.68
37064;BME280;23211;53.912;9.138;2022-09-09T16:08:45;100867.50;;;24.99;48.19
37064;BME280;23211;53.912;9.138;2022-09-09T16:11:34;100875.50;;;24.92;48.06
37064;BME280;23211;53.912;9.138;2022-09-09T16:14:21;100869.34;;;24.83;48.07
37064;BME280;23211;53.912;9.138;2022-09-09T16:17:07;100875.44;;;24.77;48.33
37064;BME280;23211;53.912;9.138;2022-09-09T16:19:53;100870.19;;;24.71;48.75
37064;BME280;23211;53.912;9.138;2022-09-09T16:22:39;100878.66;;;24.66;48.55
37064;BME280;23211;53.912;9.138;2022-09-09T16:25:25;100885.16;;;24.62;48.93
37064;BME280;23211;53.912;9.138;2022-09-09T16:28:11;100885.06;;;24.58;49.09
37064;BME280;23211;53.912;9.138;2022-09-09T16:30:57;100893.50;;;24.53;49.20